sensor_id;sensor_type;location;lat;lon;timestamp;P1;durP1;ratioP1;P2;durP2;ratioP2
43529;SDS011;55654;50.966;6.878;2023-04-15T00:00:59;11.43;;;4.07;;
43529;SDS011;55654;50.966;6.878;2023-04-15T00:03:26;9.93;;;4.13;;
43529;SDS011;55654;50.966;6.878;2023-04-15T00:05:52;8.57;;;4.27;;
43529;SDS011;55654;50.966;6.878;2023-04-15T00:08:18;13.27;;;4.60;;
43529;SDS011;55654;50.966;6.878;2023-04-15T00:10:44;12.90;;;4.50;;
43529;SDS011;55654;50.966;6.878;2023-04-15T00:13:10;10.47;;;4.63;;
43529;SDS011;55654;50.966;6.878;2023-04-15T00:15:36;8.10;;;3.83;;
43529;SDS011;55654;50.966;6.878;2023-04-15T00:18:03;7.67;;;3.63;;
43529;SDS011;55654;50.966;6.878;2023-04-15T00:20:29;9.20;;;4.10;;
43529;SDS011;55654;50.966;6.878;2023-04-15T00:22:55;13.73;;;4.40;;
43529;SDS011;55654;50.966;6.878;2023-04-15T00:25:22;7.97;;;3.77;;
43529;SDS011;55654;50.966;6.878;2023-04-15T00:27:48;8.50;;;3.93;;
43529;SDS011;55654;50.966;6.878;2023-04-15T00:30:14;8.90;;;3.87;;
43529;SDS011;55654;50.966;6.878;2023-04-15T00:32:40;7.40;;;4.23;;
43529;SDS011;55654;50.966;6.878;2023-04-15T00:35:07;10.93;;;4.03;;
43529;SDS011;55654;50.966;6.878;2023-04-15T00:37:36;8.80;;;3.60;;
43529;SDS011;55654;50.966;6.878;2023-04-15T00:40:02;11.47;;;4.70;;
43529;SDS011;55654;50.966;6.878;2023-04-15T00:42:30;16.87;;;4.77;;
43529;SDS011;55654;50.966;6.878;2023-04-15T00:44:57;10.10;;;3.97;;
43529;SDS011;55654;50.966;6.878;2023-04-15T00:47:23;11.30;;;4.17;;
43529;SDS011;55654;50.966;6.878;2023-04-15T00:49:49;8.20;;;3.90;;
43529;SDS011;55654;50.966;6.878;2023-04-15T00:52:16;17.13;;;4.07;;
43529;SDS011;55654;50.966;6.878;2023-04-15T00:54:42;10.63;;;4.77;;
43529;SDS011;55654;50.966;6.878;2023-04-15T00:57:08;7.93;;;4.57;;
43529;SDS011;55654;50.966;6.878;2023-04-15T00:59:34;8.37;;;4.23;;
43529;SDS011;55654;50.966;6.878;2023-04-15T01:02:00;13.57;;;6.03;;
43529;SDS011;55654;50.966;6.878;2023-04-15T01:04:26;12.90;;;5.43;;
43529;SDS011;55654;50.966;6.878;2023-04-15T01:06:52;11.60;;;6.40;;
43529;SDS011;55654;50.966;6.878;2023-04-15T01:09:18;11.40;;;6.20;;
43529;SDS011;55654;50.966;6.878;2023-04-15T01:11:44;12.23;;;5.80;;
43529;SDS011;55654;50.966;6.878;2023-04-15T01:14:10;9.40;;;5.53;;
43529;SDS011;55654;50.966;6.878;2023-04-15T01:16:37;8.80;;;5.10;;
43529;SDS011;55654;50.966;6.878;2023-04-15T01:19:07;12.70;;;4.93;;
43529;SDS011;55654;50.966;6.878;2023-04-15T01:21:35;9.53;;;5.07;;
43529;SDS011;55654;50.966;6.878;2023-04-15T01:24:08;8.53;;;4.50;;
43529;SDS011;55654;50.966;6.878;2023-04-15T01:26:36;11.70;;;5.60;;
43529;SDS011;55654;50.966;6.878;2023-04-15T01:29:03;10.33;;;5.63;;
43529;SDS011;55654;50.966;6.878;2023-04-15T01:31:29;12.57;;;5.13;;
43529;SDS011;55654;50.966;6.878;2023-04-15T01:33:55;14.43;;;5.43;;
43529;SDS011;55654;50.966;6.878;2023-04-15T01:36:21;11.33;;;5.23;;
43529;SDS011;55654;50.966;6.878;2023-04-15T01:38:47;8.83;;;4.80;;
43529;SDS011;55654;50.966;6.878;2023-04-15T01:41:13;14.20;;;5.33;;
43529;SDS011;55654;50.966;6.878;2023-04-15T01:43:39;9.37;;;5.90;;
43529;SDS011;55654;50.966;6.878;2023-04-15T01:46:05;10.67;;;4.90;;
43529;SDS011;55654;50.966;6.878;2023-04-15T01:48:32;13.57;;;5.23;;
43529;SDS011;55654;50.966;6.878;2023-04-15T01:50:58;13.87;;;5.60;;
43529;SDS011;55654;50.966;6.878;2023-04-15T01:53:24;12.10;;;5.00;;
43529;SDS011;55654;50.966;6.878;2023-04-15T01:55:50;15.60;;;5.57;;
43529;SDS011;55654;50.966;6.878;2023-04-15T01:58:17;15.17;;;5.10;;
43529;SDS011;55654;50.966;6.878;2023-04-15T02:00:43;11.13;;;5.20;;
43529;SDS011;55654;50.966;6.878;2023-04-15T02:03:09;8.13;;;4.73;;
43529;SDS011;55654;50.966;6.878;2023-04-15T02:05:35;14.37;;;5.30;;
43529;SDS011;55654;50.966;6.878;2023-04-15T02:08:01;10.00;;;5.53;;
43529;SDS011;55654;50.966;6.878;2023-04-15T02:10:27;12.27;;;4.97;;
43529;SDS011;55654;50.966;6.878;2023-04-15T02:12:54;23.70;;;5.87;;
43529;SDS011;55654;50.966;6.878;2023-04-15T02:15:20;15.43;;;6.23;;
43529;SDS011;55654;50.966;6.878;2023-04-15T02:17:46;12.47;;;5.40;;
43529;SDS011;55654;50.966;6.878;2023-04-15T02:20:15;12.40;;;5.97;;
43529;SDS011;55654;50.966;6.878;2023-04-15T02:22:41;10.33;;;5.13;;
43529;SDS011;55654;50.966;6.878;2023-04-15T02:25:08;10.50;;;5.07;;
43529;SDS011;55654;50.966;6.878;2023-04-15T02:27:34;12.43;;;5.07;;
43529;SDS011;55654;50.966;6.878;2023-04-15T02:30:00;11.60;;;5.17;;
43529;SDS011;55654;50.966;6.878;2023-04-15T02:32:27;13.77;;;5.37;;
43529;SDS011;55654;50.966;6.878;2023-04-15T02:34:53;10.37;;;4.67;;
43529;SDS011;55654;50.966;6.878;2023-04-15T02:37:19;18.43;;;5.63;;
43529;SDS011;55654;50.966;6.878;2023-04-15T02:39:45;9.23;;;4.90;;
43529;SDS011;55654;50.966;6.878;2023-04-15T02:42:11;15.87;;;5.77;;
43529;SDS011;55654;50.966;6.878;2023-04-15T02:44:37;10.00;;;5.57;;
43529;SDS011;55654;50.966;6.878;2023-04-15T02:47:03;11.60;;;5.00;;
43529;SDS011;55654;50.966;6.878;2023-04-15T02:49:31;12.30;;;5.47;;
43529;SDS011;55654;50.966;6.878;2023-04-15T02:51:57;12.57;;;6.03;;
43529;SDS011;55654;50.966;6.878;2023-04-15T02:54:24;10.87;;;5.60;;
43529;SDS011;55654;50.966;6.878;2023-04-15T02:56:52;11.77;;;5.00;;
43529;SDS011;55654;50.966;6.878;2023-04-15T02:59:22;13.43;;;6.10;;
43529;SDS011;55654;50.966;6.878;2023-04-15T03:01:48;11.50;;;5.03;;
43529;SDS011;55654;50.966;6.878;2023-04-15T03:04:14;13.50;;;5.67;;
43529;SDS011;55654;50.966;6.878;2023-04-15T03:06:40;10.03;;;5.40;;
43529;SDS011;55654;50.966;6.878;2023-04-15T03:09:06;8.87;;;5.00;;
43529;SDS011;55654;50.966;6.878;2023-04-15T03:11:32;11.77;;;5.17;;
43529;SDS011;55654;50.966;6.878;2023-04-15T03:14:00;11.83;;;5.80;;
43529;SDS011;55654;50.966;6.878;2023-04-15T03:16:26;11.63;;;5.20;;
43529;SDS011;55654;50.966;6.878;2023-04-15T03:18:52;12.37;;;5.07;;
43529;SDS011;55654;50.966;6.878;2023-04-15T03:21:18;7.57;;;4.97;;
43529;SDS011;55654;50.966;6.878;2023-04-15T03:23:45;11.30;;;4.67;;
43529;SDS011;55654;50.966;6.878;2023-04-15T03:26:22;13.27;;;5.30;;
43529;SDS011;55654;50.966;6.878;2023-04-15T03:28:49;12.20;;;4.90;;
43529;SDS011;55654;50.966;6.878;2023-04-15T03:31:15;12.63;;;5.20;;
43529;SDS011;55654;50.966;6.878;2023-04-15T03:33:41;13.77;;;5.73;;
43529;SDS011;55654;50.966;6.878;2023-04-15T03:36:07;9.33;;;4.77;;
43529;SDS011;55654;50.966;6.878;2023-04-15T03:38:33;11.97;;;5.77;;
43529;SDS011;55654;50.966;6.878;2023-04-15T03:40:59;7.87;;;4.50;;
43529;SDS011;55654;50.966;6.878;2023-04-15T03:43:25;7.23;;;4.23;;
43529;SDS011;55654;50.966;6.878;2023-04-15T03:45:51;11.13;;;5.50;;
43529;SDS011;55654;50.966;6.878;2023-04-15T03:48:17;12.23;;;4.73;;
43529;SDS011;55654;50.966;6.878;2023-04-15T03:50:43;11.00;;;4.90;;
43529;SDS011;55654;50.966;6.878;2023-04-15T03:53:10;10.57;;;4.50;;
43529;SDS011;55654;50.966;6.878;2023-04-15T03:55:36;16.70;;;5.20;;
43529;SDS011;55654;50.966;6.878;2023-04-15T03:58:02;8.50;;;4.23;;
43529;SDS011;55654;50.966;6.878;2023-04-15T04:00:28;8.23;;;4.40;;
43529;SDS011;55654;50.966;6.878;2023-04-15T04:02:54;11.53;;;5.23;;
43529;SDS011;55654;50.966;6.878;2023-04-15T04:05:20;12.13;;;4.73;;
43529;SDS011;55654;50.966;6.878;2023-04-15T04:07:46;15.60;;;5.90;;
43529;SDS011;55654;50.966;6.878;2023-04-15T04:10:12;10.90;;;4.80;;
43529;SDS011;55654;50.966;6.878;2023-04-15T04:12:38;12.27;;;5.40;;
43529;SDS011;55654;50.966;6.878;2023-04-15T04:15:04;15.70;;;5.17;;
43529;SDS011;55654;50.966;6.878;2023-04-15T04:17:30;11.80;;;4.37;;
43529;SDS011;55654;50.966;6.878;2023-04-15T04:19:56;13.00;;;5.67;;
43529;SDS011;55654;50.966;6.878;2023-04-15T04:22:22;8.63;;;4.57;;
43529;SDS011;55654;50.966;6.878;2023-04-15T04:24:49;18.20;;;5.60;;
43529;SDS011;55654;50.966;6.878;2023-04-15T04:27:15;11.47;;;4.27;;
43529;SDS011;55654;50.966;6.878;2023-04-15T04:29:41;13.30;;;5.00;;
43529;SDS011;55654;50.966;6.878;2023-04-15T04:32:07;12.03;;;4.80;;
43529;SDS011;55654;50.966;6.878;2023-04-15T04:34:33;11.77;;;5.30;;
43529;SDS011;55654;50.966;6.878;2023-04-15T04:36:59;17.63;;;6.13;;
43529;SDS011;55654;50.966;6.878;2023-04-15T04:39:25;10.77;;;4.73;;
43529;SDS011;55654;50.966;6.878;2023-04-15T04:41:51;11.07;;;5.53;;
43529;SDS011;55654;50.966;6.878;2023-04-15T04:44:17;11.90;;;5.23;;
43529;SDS011;55654;50.966;6.878;2023-04-15T04:46:43;9.17;;;4.87;;
43529;SDS011;55654;50.966;6.878;2023-04-15T04:49:09;12.77;;;5.17;;
43529;SDS011;55654;50.966;6.878;2023-04-15T04:51:35;10.73;;;5.60;;
43529;SDS011;55654;50.966;6.878;2023-04-15T04:54:01;18.10;;;5.73;;
43529;SDS011;55654;50.966;6.878;2023-04-15T04:56:28;15.33;;;5.23;;
43529;SDS011;55654;50.966;6.878;2023-04-15T04:58:54;11.63;;;4.80;;
43529;SDS011;55654;50.966;6.878;2023-04-15T05:01:20;11.77;;;5.03;;
43529;SDS011;55654;50.966;6.878;2023-04-15T05:03:46;10.70;;;5.40;;
43529;SDS011;55654;50.966;6.878;2023-04-15T05:06:12;8.03;;;5.10;;
43529;SDS011;55654;50.966;6.878;2023-04-15T05:08:38;11.27;;;5.13;;
43529;SDS011;55654;50.966;6.878;2023-04-15T05:11:05;10.43;;;4.90;;
43529;SDS011;55654;50.966;6.878;2023-04-15T05:13:31;10.70;;;5.63;;
43529;SDS011;55654;50.966;6.878;2023-04-15T05:15:57;11.73;;;5.33;;
43529;SDS011;55654;50.966;6.878;2023-04-15T05:18:23;12.10;;;5.47;;
43529;SDS011;55654;50.966;6.878;2023-04-15T05:20:49;10.63;;;4.80;;
43529;SDS011;55654;50.966;6.878;2023-04-15T05:23:15;11.77;;;5.10;;
43529;SDS011;55654;50.966;6.878;2023-04-15T05:25:41;9.43;;;5.10;;
43529;SDS011;55654;50.966;6.878;2023-04-15T05:28:07;14.00;;;6.47;;
43529;SDS011;55654;50.966;6.878;2023-04-15T05:30:33;12.43;;;6.40;;
43529;SDS011;55654;50.966;6.878;2023-04-15T05:33:00;8.43;;;4.93;;
43529;SDS011;55654;50.966;6.878;2023-04-15T05:35:26;11.77;;;5.73;;
43529;SDS011;55654;50.966;6.878;2023-04-15T05:37:52;8.47;;;5.20;;
43529;SDS011;55654;50.966;6.878;2023-04-15T05:40:18;13.20;;;5.30;;
43529;SDS011;55654;50.966;6.878;2023-04-15T05:42:44;14.87;;;5.53;;
43529;SDS011;55654;50.966;6.878;2023-04-15T05:45:10;13.00;;;6.33;;
43529;SDS011;55654;50.966;6.878;2023-04-15T05:47:36;13.87;;;6.03;;
43529;SDS011;55654;50.966;6.878;2023-04-15T05:50:02;11.77;;;5.77;;
43529;SDS011;55654;50.966;6.878;2023-04-15T05:52:29;12.63;;;5.50;;
43529;SDS011;55654;50.966;6.878;2023-04-15T05:54:55;15.97;;;5.87;;
43529;SDS011;55654;50.966;6.878;2023-04-15T05:57:21;12.83;;;6.37;;
43529;SDS011;55654;50.966;6.878;2023-04-15T05:59:48;11.60;;;6.97;;
43529;SDS011;55654;50.966;6.878;2023-04-15T06:02:16;13.03;;;6.47;;
43529;SDS011;55654;50.966;6.878;2023-04-15T06:04:42;16.63;;;7.03;;
43529;SDS011;55654;50.966;6.878;2023-04-15T06:07:08;11.90;;;6.93;;
43529;SDS011;55654;50.966;6.878;2023-04-15T06:09:34;14.30;;;6.47;;
43529;SDS011;55654;50.966;6.878;2023-04-15T06:12:00;13.90;;;7.10;;
43529;SDS011;55654;50.966;6.878;2023-04-15T06:14:27;15.20;;;6.70;;
43529;SDS011;55654;50.966;6.878;2023-04-15T06:16:53;11.30;;;6.27;;
43529;SDS011;55654;50.966;6.878;2023-04-15T06:19:19;13.43;;;6.33;;
43529;SDS011;55654;50.966;6.878;2023-04-15T06:21:45;21.93;;;6.00;;
43529;SDS011;55654;50.966;6.878;2023-04-15T06:24:11;14.33;;;6.57;;
43529;SDS011;55654;50.966;6.878;2023-04-15T06:26:37;16.57;;;6.47;;
43529;SDS011;55654;50.966;6.878;2023-04-15T06:29:03;13.70;;;6.77;;
43529;SDS011;55654;50.966;6.878;2023-04-15T06:31:29;9.57;;;5.27;;
43529;SDS011;55654;50.966;6.878;2023-04-15T06:33:55;11.43;;;5.70;;
43529;SDS011;55654;50.966;6.878;2023-04-15T06:36:21;15.93;;;6.17;;
43529;SDS011;55654;50.966;6.878;2023-04-15T06:38:47;13.90;;;5.97;;
43529;SDS011;55654;50.966;6.878;2023-04-15T06:41:13;13.63;;;6.57;;
43529;SDS011;55654;50.966;6.878;2023-04-15T06:43:39;11.43;;;5.50;;
43529;SDS011;55654;50.966;6.878;2023-04-15T06:46:05;17.80;;;6.43;;
43529;SDS011;55654;50.966;6.878;2023-04-15T06:48:31;12.93;;;5.90;;
43529;SDS011;55654;50.966;6.878;2023-04-15T06:50:57;10.97;;;6.23;;
43529;SDS011;55654;50.966;6.878;2023-04-15T06:53:24;10.53;;;5.67;;
43529;SDS011;55654;50.966;6.878;2023-04-15T06:55:53;20.60;;;6.40;;
43529;SDS011;55654;50.966;6.878;2023-04-15T06:58:19;9.83;;;5.20;;
43529;SDS011;55654;50.966;6.878;2023-04-15T07:00:45;12.43;;;5.47;;
43529;SDS011;55654;50.966;6.878;2023-04-15T07:03:14;12.93;;;5.67;;
43529;SDS011;55654;50.966;6.878;2023-04-15T07:05:43;17.77;;;6.73;;
43529;SDS011;55654;50.966;6.878;2023-04-15T07:08:09;11.20;;;5.37;;
43529;SDS011;55654;50.966;6.878;2023-04-15T07:10:35;8.97;;;6.13;;
43529;SDS011;55654;50.966;6.878;2023-04-15T07:13:01;12.33;;;5.90;;
43529;SDS011;55654;50.966;6.878;2023-04-15T07:15:27;9.77;;;5.47;;
43529;SDS011;55654;50.966;6.878;2023-04-15T07:17:53;13.60;;;6.83;;
43529;SDS011;55654;50.966;6.878;2023-04-15T07:20:20;10.43;;;6.10;;
43529;SDS011;55654;50.966;6.878;2023-04-15T07:22:46;10.23;;;6.73;;
43529;SDS011;55654;50.966;6.878;2023-04-15T07:25:12;11.70;;;6.60;;
43529;SDS011;55654;50.966;6.878;2023-04-15T07:27:38;11.83;;;7.30;;
43529;SDS011;55654;50.966;6.878;2023-04-15T07:30:04;10.83;;;6.60;;
43529;SDS011;55654;50.966;6.878;2023-04-15T07:32:30;9.10;;;6.10;;
43529;SDS011;55654;50.966;6.878;2023-04-15T07:34:56;14.60;;;7.60;;
43529;SDS011;55654;50.966;6.878;2023-04-15T07:37:25;13.37;;;6.87;;
43529;SDS011;55654;50.966;6.878;2023-04-15T07:39:52;9.37;;;6.10;;
43529;SDS011;55654;50.966;6.878;2023-04-15T07:42:25;12.43;;;7.47;;
43529;SDS011;55654;50.966;6.878;2023-04-15T07:44:53;11.70;;;6.77;;
43529;SDS011;55654;50.966;6.878;2023-04-15T07:47:19;9.97;;;6.97;;
43529;SDS011;55654;50.966;6.878;2023-04-15T07:49:49;9.90;;;5.70;;
43529;SDS011;55654;50.966;6.878;2023-04-15T07:52:15;8.20;;;5.83;;
43529;SDS011;55654;50.966;6.878;2023-04-15T07:54:41;12.07;;;6.73;;
43529;SDS011;55654;50.966;6.878;2023-04-15T07:57:10;11.13;;;6.87;;
43529;SDS011;55654;50.966;6.878;2023-04-15T07:59:36;8.93;;;5.57;;
43529;SDS011;55654;50.966;6.878;2023-04-15T08:02:02;8.57;;;6.23;;
43529;SDS011;55654;50.966;6.878;2023-04-15T08:04:31;9.33;;;6.13;;
43529;SDS011;55654;50.966;6.878;2023-04-15T08:06:57;7.87;;;5.47;;
43529;SDS011;55654;50.966;6.878;2023-04-15T08:09:23;12.70;;;5.10;;
43529;SDS011;55654;50.966;6.878;2023-04-15T08:11:51;6.93;;;3.90;;
43529;SDS011;55654;50.966;6.878;2023-04-15T08:14:17;6.17;;;3.30;;
43529;SDS011;55654;50.966;6.878;2023-04-15T08:16:43;6.00;;;3.30;;
43529;SDS011;55654;50.966;6.878;2023-04-15T08:19:09;4.77;;;2.93;;
43529;SDS011;55654;50.966;6.878;2023-04-15T08:21:35;6.23;;;3.03;;
43529;SDS011;55654;50.966;6.878;2023-04-15T08:24:01;5.43;;;2.80;;
43529;SDS011;55654;50.966;6.878;2023-04-15T08:26:27;4.33;;;3.20;;
43529;SDS011;55654;50.966;6.878;2023-04-15T08:28:53;6.33;;;2.53;;
43529;SDS011;55654;50.966;6.878;2023-04-15T08:31:19;7.40;;;2.60;;
43529;SDS011;55654;50.966;6.878;2023-04-15T08:33:46;3.80;;;2.27;;
43529;SDS011;55654;50.966;6.878;2023-04-15T08:36:12;3.83;;;1.80;;
43529;SDS011;55654;50.966;6.878;2023-04-15T08:38:38;3.33;;;1.87;;
43529;SDS011;55654;50.966;6.878;2023-04-15T08:41:26;4.30;;;2.10;;
43529;SDS011;55654;50.966;6.878;2023-04-15T08:43:58;4.37;;;2.40;;
43529;SDS011;55654;50.966;6.878;2023-04-15T08:46:26;2.57;;;2.00;;
43529;SDS011;55654;50.966;6.878;2023-04-15T08:48:55;2.50;;;1.87;;
43529;SDS011;55654;50.966;6.878;2023-04-15T08:51:21;3.20;;;2.10;;
43529;SDS011;55654;50.966;6.878;2023-04-15T08:53:48;2.30;;;1.80;;
43529;SDS011;55654;50.966;6.878;2023-04-15T08:56:15;4.73;;;2.23;;
43529;SDS011;55654;50.966;6.878;2023-04-15T08:58:43;3.70;;;1.97;;
43529;SDS011;55654;50.966;6.878;2023-04-15T09:01:15;2.73;;;1.97;;
43529;SDS011;55654;50.966;6.878;2023-04-15T09:03:41;4.37;;;2.17;;
43529;SDS011;55654;50.966;6.878;2023-04-15T09:06:10;3.10;;;1.67;;
43529;SDS011;55654;50.966;6.878;2023-04-15T09:08:36;2.60;;;1.50;;
43529;SDS011;55654;50.966;6.878;2023-04-15T09:11:02;6.40;;;1.80;;
43529;SDS011;55654;50.966;6.878;2023-04-15T09:13:29;3.57;;;1.97;;
43529;SDS011;55654;50.966;6.878;2023-04-15T09:15:55;4.30;;;2.13;;
43529;SDS011;55654;50.966;6.878;2023-04-15T09:18:28;3.30;;;1.60;;
43529;SDS011;55654;50.966;6.878;2023-04-15T09:20:54;1.80;;;1.30;;
43529;SDS011;55654;50.966;6.878;2023-04-15T09:23:21;3.33;;;1.73;;
43529;SDS011;55654;50.966;6.878;2023-04-15T09:25:47;4.10;;;2.07;;
43529;SDS011;55654;50.966;6.878;2023-04-15T09:28:14;9.90;;;2.33;;
43529;SDS011;55654;50.966;6.878;2023-04-15T09:30:50;3.77;;;2.00;;
43529;SDS011;55654;50.966;6.878;2023-04-15T09:33:16;3.93;;;2.40;;
43529;SDS011;55654;50.966;6.878;2023-04-15T09:35:42;3.53;;;2.40;;
43529;SDS011;55654;50.966;6.878;2023-04-15T09:38:21;4.80;;;2.60;;
43529;SDS011;55654;50.966;6.878;2023-04-15T09:40:47;4.43;;;2.73;;
43529;SDS011;55654;50.966;6.878;2023-04-15T09:43:13;6.77;;;3.00;;
43529;SDS011;55654;50.966;6.878;2023-04-15T09:45:46;3.63;;;2.47;;
43529;SDS011;55654;50.966;6.878;2023-04-15T09:48:16;3.80;;;2.23;;
43529;SDS011;55654;50.966;6.878;2023-04-15T09:50:42;3.20;;;2.57;;
43529;SDS011;55654;50.966;6.878;2023-04-15T09:53:09;5.20;;;2.93;;
43529;SDS011;55654;50.966;6.878;2023-04-15T09:55:38;4.93;;;3.20;;
43529;SDS011;55654;50.966;6.878;2023-04-15T09:58:07;5.10;;;3.13;;
43529;SDS011;55654;50.966;6.878;2023-04-15T10:00:34;4.20;;;2.60;;
43529;SDS011;55654;50.966;6.878;2023-04-15T10:03:03;4.07;;;2.77;;
43529;SDS011;55654;50.966;6.878;2023-04-15T10:05:30;3.00;;;2.27;;
43529;SDS011;55654;50.966;6.878;2023-04-15T10:07:57;5.17;;;2.50;;
43529;SDS011;55654;50.966;6.878;2023-04-15T10:10:23;3.33;;;2.60;;
43529;SDS011;55654;50.966;6.878;2023-04-15T10:12:49;5.53;;;3.17;;
43529;SDS011;55654;50.966;6.878;2023-04-15T10:15:17;4.23;;;3.70;;
43529;SDS011;55654;50.966;6.878;2023-04-15T10:17:43;4.87;;;3.10;;
43529;SDS011;55654;50.966;6.878;2023-04-15T10:20:10;7.87;;;5.53;;
43529;SDS011;55654;50.966;6.878;2023-04-15T10:22:37;5.93;;;3.10;;
43529;SDS011;55654;50.966;6.878;2023-04-15T10:25:03;3.83;;;3.03;;
43529;SDS011;55654;50.966;6.878;2023-04-15T10:27:31;5.90;;;2.93;;
43529;SDS011;55654;50.966;6.878;2023-04-15T10:29:59;4.47;;;3.40;;
43529;SDS011;55654;50.966;6.878;2023-04-15T10:32:27;4.37;;;3.23;;
43529;SDS011;55654;50.966;6.878;2023-04-15T10:34:54;4.03;;;3.23;;
43529;SDS011;55654;50.966;6.878;2023-04-15T10:37:21;4.00;;;3.40;;
43529;SDS011;55654;50.966;6.878;2023-04-15T10:39:48;5.77;;;3.60;;
43529;SDS011;55654;50.966;6.878;2023-04-15T10:42:15;5.87;;;3.07;;
43529;SDS011;55654;50.966;6.878;2023-04-15T10:44:48;4.87;;;3.60;;
43529;SDS011;55654;50.966;6.878;2023-04-15T10:47:16;4.73;;;3.43;;
43529;SDS011;55654;50.966;6.878;2023-04-15T10:49:44;4.73;;;3.60;;
43529;SDS011;55654;50.966;6.878;2023-04-15T10:52:10;3.97;;;3.20;;
43529;SDS011;55654;50.966;6.878;2023-04-15T10:54:37;7.17;;;3.27;;
43529;SDS011;55654;50.966;6.878;2023-04-15T10:59:35;3.33;;;3.00;;
43529;SDS011;55654;50.966;6.878;2023-04-15T11:02:04;4.10;;;2.83;;
43529;SDS011;55654;50.966;6.878;2023-04-15T11:04:50;3.87;;;2.50;;
43529;SDS011;55654;50.966;6.878;2023-04-15T11:07:34;4.20;;;2.53;;
43529;SDS011;55654;50.966;6.878;2023-04-15T11:10:01;3.70;;;2.70;;
43529;SDS011;55654;50.966;6.878;2023-04-15T11:12:34;3.10;;;2.50;;
43529;SDS011;55654;50.966;6.878;2023-04-15T11:17:47;3.00;;;2.70;;
43529;SDS011;55654;50.966;6.878;2023-04-15T11:20:14;4.37;;;2.83;;
43529;SDS011;55654;50.966;6.878;2023-04-15T11:22:49;3.90;;;2.83;;
43529;SDS011;55654;50.966;6.878;2023-04-15T11:25:24;3.67;;;3.10;;
43529;SDS011;55654;50.966;6.878;2023-04-15T11:27:51;4.17;;;3.20;;
43529;SDS011;55654;50.966;6.878;2023-04-15T11:30:18;5.00;;;2.90;;
43529;SDS011;55654;50.966;6.878;2023-04-15T11:32:48;5.87;;;2.90;;
43529;SDS011;55654;50.966;6.878;2023-04-15T11:35:15;4.20;;;2.50;;
43529;SDS011;55654;50.966;6.878;2023-04-15T11:37:42;2.60;;;1.93;;
43529;SDS011;55654;50.966;6.878;2023-04-15T11:40:10;3.37;;;2.13;;
43529;SDS011;55654;50.966;6.878;2023-04-15T11:42:37;2.60;;;2.30;;
43529;SDS011;55654;50.966;6.878;2023-04-15T11:45:09;2.63;;;2.30;;
43529;SDS011;55654;50.966;6.878;2023-04-15T11:47:36;2.60;;;2.30;;
43529;SDS011;55654;50.966;6.878;2023-04-15T11:50:16;5.23;;;3.03;;
43529;SDS011;55654;50.966;6.878;2023-04-15T11:52:52;4.50;;;3.43;;
43529;SDS011;55654;50.966;6.878;2023-04-15T11:55:20;3.63;;;3.20;;
43529;SDS011;55654;50.966;6.878;2023-04-15T11:57:48;3.43;;;2.80;;
43529;SDS011;55654;50.966;6.878;2023-04-15T12:00:15;5.67;;;3.10;;
43529;SDS011;55654;50.966;6.878;2023-04-15T12:02:42;3.73;;;3.43;;
43529;SDS011;55654;50.966;6.878;2023-04-15T12:05:08;4.10;;;3.70;;
43529;SDS011;55654;50.966;6.878;2023-04-15T12:10:23;4.07;;;3.67;;
43529;SDS011;55654;50.966;6.878;2023-04-15T12:12:51;4.77;;;3.53;;
43529;SDS011;55654;50.966;6.878;2023-04-15T12:15:20;5.07;;;2.70;;
43529;SDS011;55654;50.966;6.878;2023-04-15T12:17:47;3.83;;;3.43;;
43529;SDS011;55654;50.966;6.878;2023-04-15T12:20:25;2.90;;;2.70;;
43529;SDS011;55654;50.966;6.878;2023-04-15T12:22:53;3.30;;;2.67;;
43529;SDS011;55654;50.966;6.878;2023-04-15T12:25:33;2.87;;;2.47;;
43529;SDS011;55654;50.966;6.878;2023-04-15T12:27:59;2.10;;;1.90;;
43529;SDS011;55654;50.966;6.878;2023-04-15T12:30:28;4.10;;;2.23;;
43529;SDS011;55654;50.966;6.878;2023-04-15T12:33:03;2.07;;;1.87;;
43529;SDS011;55654;50.966;6.878;2023-04-15T12:35:29;2.60;;;2.40;;
43529;SDS011;55654;50.966;6.878;2023-04-15T12:37:58;2.80;;;2.20;;
43529;SDS011;55654;50.966;6.878;2023-04-15T12:40:26;4.50;;;3.10;;
43529;SDS011;55654;50.966;6.878;2023-04-15T12:42:52;3.90;;;2.60;;
43529;SDS011;55654;50.966;6.878;2023-04-15T12:45:20;3.27;;;2.90;;
43529;SDS011;55654;50.966;6.878;2023-04-15T12:47:46;5.50;;;3.30;;
43529;SDS011;55654;50.966;6.878;2023-04-15T12:50:12;3.10;;;2.60;;
43529;SDS011;55654;50.966;6.878;2023-04-15T12:52:38;3.63;;;2.90;;
43529;SDS011;55654;50.966;6.878;2023-04-15T12:55:05;8.47;;;3.10;;
43529;SDS011;55654;50.966;6.878;2023-04-15T12:57:31;4.03;;;2.93;;
43529;SDS011;55654;50.966;6.878;2023-04-15T12:59:57;3.57;;;2.83;;
43529;SDS011;55654;50.966;6.878;2023-04-15T13:02:23;3.47;;;2.80;;
43529;SDS011;55654;50.966;6.878;2023-04-15T13:04:52;4.03;;;3.07;;
43529;SDS011;55654;50.966;6.878;2023-04-15T13:07:18;3.87;;;2.80;;
43529;SDS011;55654;50.966;6.878;2023-04-15T13:09:51;3.87;;;3.20;;
43529;SDS011;55654;50.966;6.878;2023-04-15T13:12:25;4.27;;;3.30;;
43529;SDS011;55654;50.966;6.878;2023-04-15T13:14:51;4.77;;;3.63;;
43529;SDS011;55654;50.966;6.878;2023-04-15T13:17:17;6.20;;;3.97;;
43529;SDS011;55654;50.966;6.878;2023-04-15T13:19:45;4.57;;;3.73;;
43529;SDS011;55654;50.966;6.878;2023-04-15T13:22:11;7.10;;;4.20;;
43529;SDS011;55654;50.966;6.878;2023-04-15T13:24:41;4.53;;;3.70;;
43529;SDS011;55654;50.966;6.878;2023-04-15T13:27:07;4.27;;;3.00;;
43529;SDS011;55654;50.966;6.878;2023-04-15T13:29:35;3.73;;;3.03;;
43529;SDS011;55654;50.966;6.878;2023-04-15T13:32:01;5.27;;;3.17;;
43529;SDS011;55654;50.966;6.878;2023-04-15T13:34:28;3.10;;;2.50;;
43529;SDS011;55654;50.966;6.878;2023-04-15T13:36:54;2.70;;;2.33;;
43529;SDS011;55654;50.966;6.878;2023-04-15T13:39:20;4.13;;;2.60;;
43529;SDS011;55654;50.966;6.878;2023-04-15T13:41:47;5.00;;;3.03;;
43529;SDS011;55654;50.966;6.878;2023-04-15T13:44:13;5.03;;;4.53;;
43529;SDS011;55654;50.966;6.878;2023-04-15T13:46:39;7.60;;;6.80;;
43529;SDS011;55654;50.966;6.878;2023-04-15T13:49:18;9.38;;;6.75;;
43529;SDS011;55654;50.966;6.878;2023-04-15T13:51:47;7.60;;;6.50;;
43529;SDS011;55654;50.966;6.878;2023-04-15T13:54:13;10.37;;;7.97;;
43529;SDS011;55654;50.966;6.878;2023-04-15T13:56:39;10.10;;;7.60;;
43529;SDS011;55654;50.966;6.878;2023-04-15T13:59:07;9.57;;;7.53;;
43529;SDS011;55654;50.966;6.878;2023-04-15T14:01:33;9.57;;;7.47;;
43529;SDS011;55654;50.966;6.878;2023-04-15T14:04:00;9.60;;;8.00;;
43529;SDS011;55654;50.966;6.878;2023-04-15T14:06:26;8.50;;;6.80;;
43529;SDS011;55654;50.966;6.878;2023-04-15T14:08:52;10.83;;;8.23;;
43529;SDS011;55654;50.966;6.878;2023-04-15T14:11:19;8.63;;;7.23;;
43529;SDS011;55654;50.966;6.878;2023-04-15T14:13:45;10.90;;;7.20;;
43529;SDS011;55654;50.966;6.878;2023-04-15T14:16:11;8.60;;;7.67;;
43529;SDS011;55654;50.966;6.878;2023-04-15T14:18:38;11.57;;;8.47;;
43529;SDS011;55654;50.966;6.878;2023-04-15T14:21:04;11.47;;;9.03;;
43529;SDS011;55654;50.966;6.878;2023-04-15T14:23:33;10.27;;;8.73;;
43529;SDS011;55654;50.966;6.878;2023-04-15T14:25:59;11.43;;;8.40;;
43529;SDS011;55654;50.966;6.878;2023-04-15T14:28:25;9.30;;;7.80;;
43529;SDS011;55654;50.966;6.878;2023-04-15T14:30:51;11.83;;;8.03;;
43529;SDS011;55654;50.966;6.878;2023-04-15T14:33:18;11.77;;;10.57;;
43529;SDS011;55654;50.966;6.878;2023-04-15T14:35:44;11.33;;;10.13;;
43529;SDS011;55654;50.966;6.878;2023-04-15T14:38:13;12.10;;;9.70;;
43529;SDS011;55654;50.966;6.878;2023-04-15T14:40:39;10.63;;;9.07;;
43529;SDS011;55654;50.966;6.878;2023-04-15T14:43:08;14.70;;;9.43;;
43529;SDS011;55654;50.966;6.878;2023-04-15T14:45:39;11.00;;;9.13;;
43529;SDS011;55654;50.966;6.878;2023-04-15T14:48:05;10.10;;;7.83;;